sensor_id;sensor_type;location;lat;lon;timestamp;pressure;altitude;pressure_sealevel;temperature;humidity
42601;BME280;28229;48.856;9.088;2023-03-25T00:02:15;97327.84;;;7.79;89.40
42601;BME280;28229;48.856;9.088;2023-03-25T00:04:41;97334.94;;;7.72;90.18
42601;BME280;28229;48.856;9.088;2023-03-25T00:07:08;97336.56;;;7.73;89.16
42601;BME280;28229;48.856;9.088;2023-03-25T00:09:34;97340.78;;;7.74;88.84
42601;BME280;28229;48.856;9.088;2023-03-25T00:12:00;97328.06;;;7.77;87.70
42601;BME280;28229;48.856;9.088;2023-03-25T00:14:26;97329.88;;;7.77;87.23
42601;BME280;28229;48.856;9.088;2023-03-25T00:16:52;97327.84;;;7.79;87.48
42601;BME280;28229;48.856;9.088;2023-03-25T00:19:19;97343.81;;;7.71;88.29
42601;BME280;28229;48.856;9.088;2023-03-25T00:21:49;97327.72;;;7.67;88.60
42601;BME280;28229;48.856;9.088;2023-03-25T00:24:15;97337.41;;;7.67;89.27
42601;BME280;28229;48.856;9.088;2023-03-25T00:26:44;97338.59;;;7.71;88.83
42601;BME280;28229;48.856;9.088;2023-03-25T00:29:11;97347.50;;;7.63;89.00
42601;BME280;28229;48.856;9.088;2023-03-25T00:31:38;97350.75;;;7.58;89.54
42601;BME280;28229;48.856;9.088;2023-03-25T00:34:06;97335.47;;;7.55;90.33
42601;BME280;28229;48.856;9.088;2023-03-25T00:36:32;97331.25;;;7.54;90.99
42601;BME280;28229;48.856;9.088;2023-03-25T00:39:03;97330.44;;;7.54;90.71
42601;BME280;28229;48.856;9.088;2023-03-25T00:41:30;97327.81;;;7.54;89.64
42601;BME280;28229;48.856;9.088;2023-03-25T00:43:57;97329.47;;;7.48;90.02
42601;BME280;28229;48.856;9.088;2023-03-25T00:46:26;97319.44;;;7.45;90.18
42601;BME280;28229;48.856;9.088;2023-03-25T00:48:53;97322.22;;;7.50;89.18
42601;BME280;28229;48.856;9.088;2023-03-25T00:51:20;97320.81;;;7.48;88.84
42601;BME280;28229;48.856;9.088;2023-03-25T00:53:52;97311.72;;;7.50;88.27
42601;BME280;28229;48.856;9.088;2023-03-25T00:56:20;97304.75;;;7.44;88.73
42601;BME280;28229;48.856;9.088;2023-03-25T00:58:46;97298.06;;;7.48;87.94
42601;BME280;28229;48.856;9.088;2023-03-25T01:01:15;97304.75;;;7.44;88.23
42601;BME280;28229;48.856;9.088;2023-03-25T01:03:43;97303.75;;;7.45;88.00
42601;BME280;28229;48.856;9.088;2023-03-25T01:06:14;97305.94;;;7.41;87.79
42601;BME280;28229;48.856;9.088;2023-03-25T01:08:42;97306.19;;;7.40;87.42
42601;BME280;28229;48.856;9.088;2023-03-25T01:11:20;97309.78;;;7.46;87.41
42601;BME280;28229;48.856;9.088;2023-03-25T01:13:49;97302.53;;;7.41;87.47
42601;BME280;28229;48.856;9.088;2023-03-25T01:16:17;97308.19;;;7.38;87.93
42601;BME280;28229;48.856;9.088;2023-03-25T01:18:43;97314.88;;;7.34;87.98
42601;BME280;28229;48.856;9.088;2023-03-25T01:21:09;97314.31;;;7.25;87.93
42601;BME280;28229;48.856;9.088;2023-03-25T01:23:35;97310.31;;;7.22;88.32
42601;BME280;28229;48.856;9.088;2023-03-25T01:26:02;97306.25;;;7.27;87.76
42601;BME280;28229;48.856;9.088;2023-03-25T01:28:28;97295.47;;;7.16;88.52
42601;BME280;28229;48.856;9.088;2023-03-25T01:31:03;97297.47;;;7.14;88.44
42601;BME280;28229;48.856;9.088;2023-03-25T01:33:30;97280.19;;;7.13;87.84
42601;BME280;28229;48.856;9.088;2023-03-25T01:35:58;97284.44;;;7.08;88.11
42601;BME280;28229;48.856;9.088;2023-03-25T01:38:24;97292.25;;;7.14;87.66
42601;BME280;28229;48.856;9.088;2023-03-25T01:40:52;97288.63;;;7.15;87.99
42601;BME280;28229;48.856;9.088;2023-03-25T01:43:20;97291.66;;;7.12;86.01
42601;BME280;28229;48.856;9.088;2023-03-25T01:45:47;97298.31;;;7.15;85.74
42601;BME280;28229;48.856;9.088;2023-03-25T01:48:18;97292.44;;;7.19;85.02
42601;BME280;28229;48.856;9.088;2023-03-25T01:51:19;97288.06;;;7.13;86.08
42601;BME280;28229;48.856;9.088;2023-03-25T01:53:49;97291.47;;;7.14;85.59
42601;BME280;28229;48.856;9.088;2023-03-25T01:56:18;97282.00;;;7.13;85.32
42601;BME280;28229;48.856;9.088;2023-03-25T01:58:48;97283.78;;;7.19;85.66
42601;BME280;28229;48.856;9.088;2023-03-25T02:01:18;97266.47;;;7.18;85.35
42601;BME280;28229;48.856;9.088;2023-03-25T02:03:50;97264.06;;;7.16;85.67
42601;BME280;28229;48.856;9.088;2023-03-25T02:06:24;97268.50;;;7.16;85.28
42601;BME280;28229;48.856;9.088;2023-03-25T02:08:55;97264.50;;;7.13;85.38
42601;BME280;28229;48.856;9.088;2023-03-25T02:11:22;97250.19;;;7.16;85.20
42601;BME280;28229;48.856;9.088;2023-03-25T02:13:56;97254.22;;;7.18;85.02
42601;BME280;28229;48.856;9.088;2023-03-25T02:24:47;97267.72;;;7.15;85.47
42601;BME280;28229;48.856;9.088;2023-03-25T02:27:22;97275.34;;;7.17;85.44
42601;BME280;28229;48.856;9.088;2023-03-25T02:35:21;97354.25;;;7.07;89.68
42601;BME280;28229;48.856;9.088;2023-03-25T02:40:39;97376.84;;;6.29;88.62
42601;BME280;28229;48.856;9.088;2023-03-25T02:45:58;97359.56;;;5.88;91.49
42601;BME280;28229;48.856;9.088;2023-03-25T02:48:49;97357.72;;;5.76;91.99
42601;BME280;28229;48.856;9.088;2023-03-25T02:51:27;97338.25;;;5.71;91.80
42601;BME280;28229;48.856;9.088;2023-03-25T02:53:59;97332.03;;;5.66;92.59
42601;BME280;28229;48.856;9.088;2023-03-25T02:56:27;97312.78;;;5.60;92.79
42601;BME280;28229;48.856;9.088;2023-03-25T02:58:58;97304.75;;;5.55;92.33
42601;BME280;28229;48.856;9.088;2023-03-25T03:01:25;97293.28;;;5.56;92.98
42601;BME280;28229;48.856;9.088;2023-03-25T03:03:55;97289.09;;;5.55;92.85
42601;BME280;28229;48.856;9.088;2023-03-25T03:06:22;97279.84;;;5.52;93.60
42601;BME280;28229;48.856;9.088;2023-03-25T03:11:41;97274.84;;;5.51;93.82
42601;BME280;28229;48.856;9.088;2023-03-25T03:14:36;97267.81;;;5.51;93.93
42601;BME280;28229;48.856;9.088;2023-03-25T03:17:16;97265.41;;;5.50;94.10
42601;BME280;28229;48.856;9.088;2023-03-25T03:19:51;97269.81;;;5.56;93.76
42601;BME280;28229;48.856;9.088;2023-03-25T03:22:33;97253.34;;;5.49;94.53
42601;BME280;28229;48.856;9.088;2023-03-25T03:25:30;97271.81;;;5.41;95.30
42601;BME280;28229;48.856;9.088;2023-03-25T03:28:05;97282.25;;;5.41;95.42
42601;BME280;28229;48.856;9.088;2023-03-25T03:35:51;97289.06;;;5.48;95.90
42601;BME280;28229;48.856;9.088;2023-03-25T03:38:25;97299.31;;;5.50;96.44
42601;BME280;28229;48.856;9.088;2023-03-25T03:40:57;97295.50;;;5.52;96.43
42601;BME280;28229;48.856;9.088;2023-03-25T03:43:36;97308.75;;;5.51;96.85
42601;BME280;28229;48.856;9.088;2023-03-25T03:46:17;97313.56;;;5.54;97.28
42601;BME280;28229;48.856;9.088;2023-03-25T03:49:00;97318.78;;;5.54;97.87
42601;BME280;28229;48.856;9.088;2023-03-25T03:51:31;97331.03;;;5.53;97.53
42601;BME280;28229;48.856;9.088;2023-03-25T03:54:21;97320.41;;;5.55;97.54
42601;BME280;28229;48.856;9.088;2023-03-25T03:56:56;97320.41;;;5.55;97.61
42601;BME280;28229;48.856;9.088;2023-03-25T03:59:36;97331.44;;;5.57;96.94
42601;BME280;28229;48.856;9.088;2023-03-25T04:02:27;97319.38;;;5.63;95.25
42601;BME280;28229;48.856;9.088;2023-03-25T04:04:55;97327.41;;;5.61;95.27
42601;BME280;28229;48.856;9.088;2023-03-25T04:07:38;97327.63;;;5.60;95.48
42601;BME280;28229;48.856;9.088;2023-03-25T04:12:43;97348.91;;;5.63;94.33
42601;BME280;28229;48.856;9.088;2023-03-25T04:15:11;97343.47;;;5.65;94.34
42601;BME280;28229;48.856;9.088;2023-03-25T04:17:37;97343.69;;;5.70;94.40
42601;BME280;28229;48.856;9.088;2023-03-25T04:20:04;97343.47;;;5.71;94.14
42601;BME280;28229;48.856;9.088;2023-03-25T04:22:37;97340.88;;;5.71;93.49
42601;BME280;28229;48.856;9.088;2023-03-25T04:25:06;97351.69;;;5.68;93.68
42601;BME280;28229;48.856;9.088;2023-03-25T04:27:32;97339.28;;;5.70;93.39
42601;BME280;28229;48.856;9.088;2023-03-25T04:30:04;97339.47;;;5.69;92.58
42601;BME280;28229;48.856;9.088;2023-03-25T04:32:30;97339.28;;;5.70;92.27
42601;BME280;28229;48.856;9.088;2023-03-25T04:34:57;97339.28;;;5.70;92.50
42601;BME280;28229;48.856;9.088;2023-03-25T04:37:24;97338.25;;;5.71;92.13
42601;BME280;28229;48.856;9.088;2023-03-25T04:39:51;97344.50;;;5.64;92.30
42601;BME280;28229;48.856;9.088;2023-03-25T04:42:25;97343.28;;;5.60;92.47
42601;BME280;28229;48.856;9.088;2023-03-25T04:44:58;97336.06;;;5.55;92.51
42601;BME280;28229;48.856;9.088;2023-03-25T04:47:24;97340.47;;;5.55;92.99
42601;BME280;28229;48.856;9.088;2023-03-25T04:49:51;97342.06;;;5.49;92.91
42601;BME280;28229;48.856;9.088;2023-03-25T04:52:17;97333.63;;;5.47;92.67
42601;BME280;28229;48.856;9.088;2023-03-25T04:54:43;97345.66;;;5.41;93.03
42601;BME280;28229;48.856;9.088;2023-03-25T04:57:09;97344.47;;;5.44;92.81
42601;BME280;28229;48.856;9.088;2023-03-25T04:59:36;97342.47;;;5.46;91.84
42601;BME280;28229;48.856;9.088;2023-03-25T05:02:03;97359.91;;;5.45;91.56
42601;BME280;28229;48.856;9.088;2023-03-25T05:04:31;97367.34;;;5.48;90.74
42601;BME280;28229;48.856;9.088;2023-03-25T05:06:57;97363.34;;;5.46;90.59
42601;BME280;28229;48.856;9.088;2023-03-25T05:09:24;97355.09;;;5.49;90.21
42601;BME280;28229;48.856;9.088;2023-03-25T05:11:51;97364.16;;;5.60;89.94
42601;BME280;28229;48.856;9.088;2023-03-25T05:14:19;97366.97;;;5.65;89.13
42601;BME280;28229;48.856;9.088;2023-03-25T05:16:46;97369.38;;;5.66;89.60
42601;BME280;28229;48.856;9.088;2023-03-25T05:19:13;97363.16;;;5.67;89.85
42601;BME280;28229;48.856;9.088;2023-03-25T05:21:41;97355.13;;;5.76;88.85
42601;BME280;28229;48.856;9.088;2023-03-25T05:24:09;97353.34;;;5.76;88.56
42601;BME280;28229;48.856;9.088;2023-03-25T05:26:37;97354.13;;;5.70;88.84
42601;BME280;28229;48.856;9.088;2023-03-25T05:29:07;97358.97;;;5.80;88.08
42601;BME280;28229;48.856;9.088;2023-03-25T05:31:34;97353.31;;;5.89;87.57
42601;BME280;28229;48.856;9.088;2023-03-25T05:34:00;97361.75;;;5.91;86.62
42601;BME280;28229;48.856;9.088;2023-03-25T05:36:31;97350.53;;;5.98;86.47
42601;BME280;28229;48.856;9.088;2023-03-25T05:38:57;97354.97;;;5.97;86.81
42601;BME280;28229;48.856;9.088;2023-03-25T05:41:26;97351.69;;;5.95;87.25
42601;BME280;28229;48.856;9.088;2023-03-25T05:44:05;97345.31;;;5.98;86.83
42601;BME280;28229;48.856;9.088;2023-03-25T05:46:31;97352.94;;;6.06;85.91
42601;BME280;28229;48.856;9.088;2023-03-25T05:48:58;97351.53;;;6.03;85.96
42601;BME280;28229;48.856;9.088;2023-03-25T05:51:26;97346.91;;;6.05;85.57
42601;BME280;28229;48.856;9.088;2023-03-25T05:53:53;97351.16;;;6.06;85.50
42601;BME280;28229;48.856;9.088;2023-03-25T05:56:21;97354.75;;;6.05;86.03
42601;BME280;28229;48.856;9.088;2023-03-25T05:58:49;97363.38;;;6.13;84.79
42601;BME280;28229;48.856;9.088;2023-03-25T06:01:17;97369.00;;;6.09;84.48
42601;BME280;28229;48.856;9.088;2023-03-25T06:03:44;97359.78;;;6.14;84.34
42601;BME280;28229;48.856;9.088;2023-03-25T06:06:11;97366.97;;;6.18;84.34
42601;BME280;28229;48.856;9.088;2023-03-25T06:08:45;97369.41;;;6.20;84.67
42601;BME280;28229;48.856;9.088;2023-03-25T06:11:12;97376.25;;;6.21;83.87
42601;BME280;28229;48.856;9.088;2023-03-25T06:13:42;97382.66;;;6.25;84.13
42601;BME280;28229;48.856;9.088;2023-03-25T06:16:23;97388.69;;;6.25;84.09
42601;BME280;28229;48.856;9.088;2023-03-25T06:18:52;97382.25;;;6.28;84.56
42601;BME280;28229;48.856;9.088;2023-03-25T06:21:26;97393.91;;;6.32;83.84
42601;BME280;28229;48.856;9.088;2023-03-25T06:23:53;97395.91;;;6.30;84.01
42601;BME280;28229;48.856;9.088;2023-03-25T06:26:21;97398.72;;;6.35;83.51
42601;BME280;28229;48.856;9.088;2023-03-25T06:28:48;97401.94;;;6.37;83.99
42601;BME280;28229;48.856;9.088;2023-03-25T06:31:18;97387.88;;;6.38;84.30
42601;BME280;28229;48.856;9.088;2023-03-25T06:33:46;97391.88;;;6.41;84.49
42601;BME280;28229;48.856;9.088;2023-03-25T06:36:15;97392.06;;;6.46;84.21
42601;BME280;28229;48.856;9.088;2023-03-25T06:38:47;97393.06;;;6.52;83.89
42601;BME280;28229;48.856;9.088;2023-03-25T06:41:16;97397.06;;;6.61;84.08
42601;BME280;28229;48.856;9.088;2023-03-25T06:43:47;97391.81;;;6.67;83.67
42601;BME280;28229;48.856;9.088;2023-03-25T06:46:19;97397.25;;;6.73;84.17
42601;BME280;28229;48.856;9.088;2023-03-25T06:49:18;97401.22;;;6.89;83.39
42601;BME280;28229;48.856;9.088;2023-03-25T06:51:44;97389.34;;;6.93;83.75
42601;BME280;28229;48.856;9.088;2023-03-25T06:54:11;97392.53;;;7.01;82.80
42601;BME280;28229;48.856;9.088;2023-03-25T06:56:37;97397.38;;;6.98;82.91
42601;BME280;28229;48.856;9.088;2023-03-25T06:59:03;97388.44;;;7.12;81.58
42601;BME280;28229;48.856;9.088;2023-03-25T07:01:30;97393.25;;;7.22;81.29
42601;BME280;28229;48.856;9.088;2023-03-25T07:03:56;97395.19;;;7.33;80.46
42601;BME280;28229;48.856;9.088;2023-03-25T07:06:23;97398.59;;;7.40;80.60
42601;BME280;28229;48.856;9.088;2023-03-25T07:08:50;97396.38;;;7.37;81.91
42601;BME280;28229;48.856;9.088;2023-03-25T07:11:24;97408.63;;;7.43;80.59
42601;BME280;28229;48.856;9.088;2023-03-25T07:13:52;97401.59;;;7.44;81.05
42601;BME280;28229;48.856;9.088;2023-03-25T07:16:20;97402.59;;;7.43;80.97
42601;BME280;28229;48.856;9.088;2023-03-25T07:18:46;97400.41;;;7.40;81.32
42601;BME280;28229;48.856;9.088;2023-03-25T07:21:13;97396.38;;;7.37;82.20
42601;BME280;28229;48.856;9.088;2023-03-25T07:23:39;97392.09;;;7.43;81.11
42601;BME280;28229;48.856;9.088;2023-03-25T07:26:05;97401.38;;;7.46;81.07
42601;BME280;28229;48.856;9.088;2023-03-25T07:28:32;97401.75;;;7.49;80.82
42601;BME280;28229;48.856;9.088;2023-03-25T07:30:58;97403.56;;;7.49;81.24
42601;BME280;28229;48.856;9.088;2023-03-25T07:33:24;97408.25;;;7.72;79.55
42601;BME280;28229;48.856;9.088;2023-03-25T07:35:50;97401.31;;;7.84;79.80
42601;BME280;28229;48.856;9.088;2023-03-25T07:38:17;97407.91;;;7.93;80.07
42601;BME280;28229;48.856;9.088;2023-03-25T07:40:43;97407.69;;;7.95;79.17
42601;BME280;28229;48.856;9.088;2023-03-25T07:43:09;97409.94;;;7.91;79.32
42601;BME280;28229;48.856;9.088;2023-03-25T07:45:53;97410.53;;;7.93;79.79
42601;BME280;28229;48.856;9.088;2023-03-25T07:48:19;97401.66;;;7.94;79.27
42601;BME280;28229;48.856;9.088;2023-03-25T07:50:50;97406.47;;;7.97;79.19
42601;BME280;28229;48.856;9.088;2023-03-25T07:53:16;97407.97;;;8.12;79.47
42601;BME280;28229;48.856;9.088;2023-03-25T07:55:43;97403.84;;;8.23;78.60
42601;BME280;28229;48.856;9.088;2023-03-25T07:58:11;97397.69;;;8.35;80.17
42601;BME280;28229;48.856;9.088;2023-03-25T08:00:37;97396.84;;;8.42;77.23
42601;BME280;28229;48.856;9.088;2023-03-25T08:03:03;97389.94;;;8.47;79.25
42601;BME280;28229;48.856;9.088;2023-03-25T08:05:30;97394.56;;;8.70;76.43
42601;BME280;28229;48.856;9.088;2023-03-25T08:07:56;97392.88;;;8.76;75.37
42601;BME280;28229;48.856;9.088;2023-03-25T08:10:26;97389.47;;;8.75;75.84
42601;BME280;28229;48.856;9.088;2023-03-25T08:12:52;97388.00;;;8.80;76.30
42601;BME280;28229;48.856;9.088;2023-03-25T08:15:18;97400.38;;;8.91;76.20
42601;BME280;28229;48.856;9.088;2023-03-25T08:17:45;97385.66;;;8.90;73.97
42601;BME280;28229;48.856;9.088;2023-03-25T08:20:12;97398.69;;;8.96;74.26
42601;BME280;28229;48.856;9.088;2023-03-25T08:22:39;97400.72;;;8.94;74.12
42601;BME280;28229;48.856;9.088;2023-03-25T08:25:06;97397.91;;;8.96;73.60
42601;BME280;28229;48.856;9.088;2023-03-25T08:27:33;97403.13;;;8.96;73.77
42601;BME280;28229;48.856;9.088;2023-03-25T08:29:59;97404.44;;;9.05;75.43
42601;BME280;28229;48.856;9.088;2023-03-25T08:32:26;97391.31;;;9.24;73.39
42601;BME280;28229;48.856;9.088;2023-03-25T08:34:53;97394.50;;;9.26;72.50
42601;BME280;28229;48.856;9.088;2023-03-25T08:37:20;97386.63;;;9.26;72.74
42601;BME280;28229;48.856;9.088;2023-03-25T08:39:47;97392.50;;;9.09;72.66
42601;BME280;28229;48.856;9.088;2023-03-25T08:42:15;97387.69;;;9.06;74.05
42601;BME280;28229;48.856;9.088;2023-03-25T08:44:42;97394.63;;;8.82;76.40
42601;BME280;28229;48.856;9.088;2023-03-25T08:47:08;97409.78;;;8.62;77.98
42601;BME280;28229;48.856;9.088;2023-03-25T08:49:34;97425.09;;;8.39;79.22
42601;BME280;28229;48.856;9.088;2023-03-25T08:52:00;97412.72;;;8.22;79.71
42601;BME280;28229;48.856;9.088;2023-03-25T08:54:27;97414.31;;;7.97;79.87
42601;BME280;28229;48.856;9.088;2023-03-25T08:56:54;97421.09;;;7.80;80.97
42601;BME280;28229;48.856;9.088;2023-03-25T08:59:20;97424.78;;;7.72;81.89
42601;BME280;28229;48.856;9.088;2023-03-25T09:01:47;97419.19;;;7.62;83.12
42601;BME280;28229;48.856;9.088;2023-03-25T09:04:13;97428.53;;;7.51;84.91
42601;BME280;28229;48.856;9.088;2023-03-25T09:06:39;97415.94;;;7.35;86.36
42601;BME280;28229;48.856;9.088;2023-03-25T09:09:06;97421.34;;;7.40;85.94
42601;BME280;28229;48.856;9.088;2023-03-25T09:11:34;97418.06;;;7.51;85.64
42601;BME280;28229;48.856;9.088;2023-03-25T09:14:02;97407.53;;;7.58;87.00
42601;BME280;28229;48.856;9.088;2023-03-25T09:16:31;97409.09;;;7.66;86.77
42601;BME280;28229;48.856;9.088;2023-03-25T09:18:57;97419.50;;;7.79;85.64
42601;BME280;28229;48.856;9.088;2023-03-25T09:21:23;97414.16;;;7.92;85.90
42601;BME280;28229;48.856;9.088;2023-03-25T09:23:49;97410.09;;;7.96;85.68
42601;BME280;28229;48.856;9.088;2023-03-25T09:26:16;97408.56;;;8.14;86.91
42601;BME280;28229;48.856;9.088;2023-03-25T09:28:42;97405.84;;;8.27;84.98
42601;BME280;28229;48.856;9.088;2023-03-25T09:31:09;97408.31;;;8.41;81.96
42601;BME280;28229;48.856;9.088;2023-03-25T09:33:35;97403.00;;;8.54;80.61
42601;BME280;28229;48.856;9.088;2023-03-25T09:36:02;97396.13;;;8.71;83.32
42601;BME280;28229;48.856;9.088;2023-03-25T09:38:28;97405.81;;;8.89;81.68
42601;BME280;28229;48.856;9.088;2023-03-25T09:40:55;97400.38;;;9.09;81.55
42601;BME280;28229;48.856;9.088;2023-03-25T09:43:50;97392.00;;;9.01;80.39
42601;BME280;28229;48.856;9.088;2023-03-25T09:46:21;97390.25;;;8.94;79.40
42601;BME280;28229;48.856;9.088;2023-03-25T09:48:48;97392.28;;;8.92;79.83
42601;BME280;28229;48.856;9.088;2023-03-25T09:51:28;97392.50;;;8.72;81.62
42601;BME280;28229;48.856;9.088;2023-03-25T09:54:11;97400.09;;;8.81;82.53
42601;BME280;28229;48.856;9.088;2023-03-25T09:56:42;97389.88;;;8.91;84.48
42601;BME280;28229;48.856;9.088;2023-03-25T09:59:12;97390.47;;;9.11;82.47
42601;BME280;28229;48.856;9.088;2023-03-25T10:04:48;97390.50;;;9.96;79.67
42601;BME280;28229;48.856;9.088;2023-03-25T10:15:01;97372.84;;;10.38;75.89
42601;BME280;28229;48.856;9.088;2023-03-25T10:24:00;97377.53;;;10.36;70.78
42601;BME280;28229;48.856;9.088;2023-03-25T10:26:36;97378.66;;;10.52;71.37
42601;BME280;28229;48.856;9.088;2023-03-25T10:29:11;97377.88;;;10.52;70.98
42601;BME280;28229;48.856;9.088;2023-03-25T10:31:45;97380.03;;;10.43;68.48
42601;BME280;28229;48.856;9.088;2023-03-25T10:34:17;97364.03;;;10.33;67.78
42601;BME280;28229;48.856;9.088;2023-03-25T10:36:53;97368.69;;;10.19;70.09
42601;BME280;28229;48.856;9.088;2023-03-25T10:39:24;97378.84;;;10.15;72.29
42601;BME280;28229;48.856;9.088;2023-03-25T10:41:55;97377.59;;;10.06;72.35
42601;BME280;28229;48.856;9.088;2023-03-25T10:44:25;97374.28;;;9.99;74.18
42601;BME280;28229;48.856;9.088;2023-03-25T10:47:03;97378.72;;;9.86;75.37
42601;BME280;28229;48.856;9.088;2023-03-25T10:49:32;97371.97;;;9.90;74.86
42601;BME280;28229;48.856;9.088;2023-03-25T10:52:00;97367.28;;;9.93;72.49
42601;BME280;28229;48.856;9.088;2023-03-25T10:54:29;97351.91;;;10.32;76.08
42601;BME280;28229;48.856;9.088;2023-03-25T10:57:06;97357.16;;;10.55;72.02
42601;BME280;28229;48.856;9.088;2023-03-25T10:59:43;97348.50;;;10.43;71.53
42601;BME280;28229;48.856;9.088;2023-03-25T11:02:17;97368.94;;;10.41;67.55
42601;BME280;28229;48.856;9.088;2023-03-25T11:04:45;97341.47;;;10.60;68.45
42601;BME280;28229;48.856;9.088;2023-03-25T11:07:22;97347.38;;;10.91;71.33
42601;BME280;28229;48.856;9.088;2023-03-25T11:09:51;97346.06;;;11.05;66.12
42601;BME280;28229;48.856;9.088;2023-03-25T11:12:21;97346.53;;;11.02;67.65
42601;BME280;28229;48.856;9.088;2023-03-25T11:14:55;97343.78;;;11.26;66.72
42601;BME280;28229;48.856;9.088;2023-03-25T11:17:24;97358.03;;;11.13;64.36
42601;BME280;28229;48.856;9.088;2023-03-25T11:19:58;97353.31;;;11.27;66.62
42601;BME280;28229;48.856;9.088;2023-03-25T11:22:29;97362.59;;;11.47;66.41
42601;BME280;28229;48.856;9.088;2023-03-25T11:25:05;97343.41;;;11.34;64.76
42601;BME280;28229;48.856;9.088;2023-03-25T11:27:46;97355.22;;;11.32;63.13
42601;BME280;28229;48.856;9.088;2023-03-25T11:30:16;97347.25;;;11.43;62.72
42601;BME280;28229;48.856;9.088;2023-03-25T11:32:43;97346.47;;;11.60;62.72
42601;BME280;28229;48.856;9.088;2023-03-25T11:35:18;97350.03;;;11.82;60.62
42601;BME280;28229;48.856;9.088;2023-03-25T11:37:53;97350.03;;;11.82;60.65
42601;BME280;28229;48.856;9.088;2023-03-25T11:40:21;97355.50;;;11.93;57.84
42601;BME280;28229;48.856;9.088;2023-03-25T11:42:52;97362.19;;;12.00;58.12
42601;BME280;28229;48.856;9.088;2023-03-25T11:45:45;97355.38;;;11.88;60.11
42601;BME280;28229;48.856;9.088;2023-03-25T11:48:17;97353.88;;;11.92;60.53
42601;BME280;28229;48.856;9.088;2023-03-25T11:50:53;97350.72;;;12.07;57.69
42601;BME280;28229;48.856;9.088;2023-03-25T11:53:21;97358.81;;;11.88;56.17
42601;BME280;28229;48.856;9.088;2023-03-25T11:55:53;97350.25;;;11.64;58.13
42601;BME280;28229;48.856;9.088;2023-03-25T11:58:26;97349.16;;;11.77;59.93
42601;BME280;28229;48.856;9.088;2023-03-25T12:01:02;97367.75;;;11.70;58.55
42601;BME280;28229;48.856;9.088;2023-03-25T12:03:33;97377.63;;;11.46;59.83
42601;BME280;28229;48.856;9.088;2023-03-25T12:06:15;97363.63;;;11.46;60.02
42601;BME280;28229;48.856;9.088;2023-03-25T12:08:52;97347.53;;;11.59;61.93
42601;BME280;28229;48.856;9.088;2023-03-25T12:11:31;97352.94;;;11.69;60.01
42601;BME280;28229;48.856;9.088;2023-03-25T12:30:35;97375.88;;;12.53;59.32
42601;BME280;28229;48.856;9.088;2023-03-25T12:33:28;97372.13;;;12.10;59.86
42601;BME280;28229;48.856;9.088;2023-03-25T12:38:48;97419.47;;;11.59;66.37
42601;BME280;28229;48.856;9.088;2023-03-25T12:41:36;97412.03;;;11.28;67.69
42601;BME280;28229;48.856;9.088;2023-03-25T12:44:36;97410.88;;;10.83;71.82
42601;BME280;28229;48.856;9.088;2023-03-25T12:47:19;97392.44;;;10.83;73.34
42601;BME280;28229;48.856;9.088;2023-03-25T12:52:42;97387.78;;;11.14;71.95
42601;BME280;28229;48.856;9.088;2023-03-25T12:55:27;97395.88;;;11.24;68.74
42601;BME280;28229;48.856;9.088;2023-03-25T13:09:19;97374.56;;;11.37;64.53
42601;BME280;28229;48.856;9.088;2023-03-25T13:11:50;97378.28;;;11.70;62.90
42601;BME280;28229;48.856;9.088;2023-03-25T13:14:26;97373.72;;;11.94;62.18
42601;BME280;28229;48.856;9.088;2023-03-25T13:16:56;97384.06;;;12.01;62.55
42601;BME280;28229;48.856;9.088;2023-03-25T13:19:26;97383.25;;;12.34;65.18
42601;BME280;28229;48.856;9.088;2023-03-25T13:22:02;97385.50;;;12.43;62.12
42601;BME280;28229;48.856;9.088;2023-03-25T13:24:50;97374.06;;;12.37;61.23
42601;BME280;28229;48.856;9.088;2023-03-25T13:27:32;97386.94;;;12.33;61.70
42601;BME280;28229;48.856;9.088;2023-03-25T13:29:59;97407.25;;;12.16;60.36
42601;BME280;28229;48.856;9.088;2023-03-25T13:32:40;97380.66;;;12.17;61.41
42601;BME280;28229;48.856;9.088;2023-03-25T13:37:49;97366.22;;;12.42;60.13
42601;BME280;28229;48.856;9.088;2023-03-25T13:40:35;97376.84;;;12.47;59.74
42601;BME280;28229;48.856;9.088;2023-03-25T13:43:04;97359.25;;;12.53;57.13
42601;BME280;28229;48.856;9.088;2023-03-25T13:45:43;97357.13;;;12.72;58.77
42601;BME280;28229;48.856;9.088;2023-03-25T13:48:26;97359.16;;;13.09;57.39
42601;BME280;28229;48.856;9.088;2023-03-25T13:50:58;97361.91;;;13.19;57.54
42601;BME280;28229;48.856;9.088;2023-03-25T13:53:31;97371.38;;;12.71;56.61
42601;BME280;28229;48.856;9.088;2023-03-25T14:13:15;97457.09;;;9.89;62.60
42601;BME280;28229;48.856;9.088;2023-03-25T14:17:49;97414.41;;;9.33;71.89
42601;BME280;28229;48.856;9.088;2023-03-25T14:20:22;97398.69;;;9.76;71.77
42601;BME280;28229;48.856;9.088;2023-03-25T14:22:55;97399.00;;;10.21;71.28
42601;BME280;28229;48.856;9.088;2023-03-25T14:27:54;97384.56;;;10.83;68.93
42601;BME280;28229;48.856;9.088;2023-03-25T14:30:23;97390.53;;;11.19;65.92
42601;BME280;28229;48.856;9.088;2023-03-25T14:32:50;97392.19;;;11.37;65.25
42601;BME280;28229;48.856;9.088;2023-03-25T14:46:02;97372.09;;;12.27;59.83
42601;BME280;28229;48.856;9.088;2023-03-25T14:53:40;97361.53;;;12.44;59.43
42601;BME280;28229;48.856;9.088;2023-03-25T14:56:17;97367.06;;;12.65;58.51
42601;BME280;28229;48.856;9.088;2023-03-25T14:58:45;97366.25;;;12.64;58.74
42601;BME280;28229;48.856;9.088;2023-03-25T15:01:20;97368.66;;;12.66;57.52
42601;BME280;28229;48.856;9.088;2023-03-25T15:04:11;97368.66;;;13.10;58.28
42601;BME280;28229;48.856;9.088;2023-03-25T15:06:39;97360.13;;;13.25;56.47
42601;BME280;28229;48.856;9.088;2023-03-25T15:09:08;97350.34;;;13.25;55.80
42601;BME280;28229;48.856;9.088;2023-03-25T15:11:40;97347.34;;;13.17;53.90
42601;BME280;28229;48.856;9.088;2023-03-25T15:14:20;97355.75;;;13.36;53.46
42601;BME280;28229;48.856;9.088;2023-03-25T15:19:16;97347.28;;;13.33;50.70
42601;BME280;28229;48.856;9.088;2023-03-25T15:24:30;97347.16;;;13.23;52.41
42601;BME280;28229;48.856;9.088;2023-03-25T15:26:59;97340.56;;;13.26;52.03
42601;BME280;28229;48.856;9.088;2023-03-25T15:34:55;97357.66;;;13.18;50.86
42601;BME280;28229;48.856;9.088;2023-03-25T15:40:32;97344.63;;;13.11;51.60
42601;BME280;28229;48.856;9.088;2023-03-25T15:43:30;97351.41;;;13.02;50.77